createdAt,value
2022-11-04T00:00:13.609Z,11.50
2022-11-04T00:01:13.755Z,11.50
2022-11-04T00:02:13.722Z,11.50
2022-11-04T00:03:13.823Z,11.30
2022-11-04T00:04:13.708Z,11.30
2022-11-04T00:05:13.734Z,11.50
2022-11-04T00:06:13.946Z,11.50
2022-11-04T00:07:12.881Z,11.30
2022-11-04T00:08:14.067Z,11.40
2022-11-04T00:09:13.070Z,11.30
2022-11-04T00:10:13.047Z,11.30
2022-11-04T00:11:13.229Z,11.40
2022-11-04T00:12:13.058Z,11.50
2022-11-04T00:13:13.496Z,11.40
2022-11-04T00:14:14.157Z,11.40
2022-11-04T00:15:13.111Z,11.30
2022-11-04T00:16:13.246Z,11.40
2022-11-04T00:17:13.096Z,11.40
2022-11-04T00:18:12.998Z,11.40
2022-11-04T00:19:13.050Z,11.40
2022-11-04T00:20:12.972Z,11.30
2022-11-04T00:21:12.854Z,11.40
2022-11-04T00:22:13.793Z,11.30
2022-11-04T00:23:13.708Z,11.40
2022-11-04T00:24:13.868Z,11.30
2022-11-04T00:25:13.187Z,11.40
2022-11-04T00:26:13.390Z,11.30
2022-11-04T00:27:13.312Z,11.20
2022-11-04T00:28:13.294Z,11.30
2022-11-04T00:29:13.538Z,11.30
2022-11-04T00:30:13.656Z,11.30
2022-11-04T00:31:39.304Z,11.30
2022-11-04T00:32:13.179Z,11.20
2022-11-04T00:33:13.199Z,11.20
2022-11-04T00:34:13.149Z,11.30
2022-11-04T00:35:13.037Z,11.40
2022-11-04T00:36:12.922Z,11.10
2022-11-04T00:37:12.837Z,11.20
2022-11-04T00:38:13.973Z,11.10
2022-11-04T00:39:12.995Z,11.20
2022-11-04T00:40:13.113Z,11.00
2022-11-04T00:41:12.988Z,11.10
2022-11-04T00:42:13.123Z,11.20
2022-11-04T00:43:13.026Z,11.30
2022-11-04T00:44:13.040Z,11.30
2022-11-04T00:45:13.052Z,11.10
2022-11-04T00:46:13.242Z,11.20
2022-11-04T00:47:13.079Z,11.20
2022-11-04T00:48:12.998Z,11.20
2022-11-04T00:49:13.036Z,11.20
2022-11-04T00:50:13.040Z,11.20
2022-11-04T00:51:17.976Z,11.00
2022-11-04T00:52:12.934Z,11.10
2022-11-04T00:53:13.103Z,11.20
2022-11-04T00:54:13.234Z,11.10
2022-11-04T00:55:13.424Z,11.20
2022-11-04T00:56:13.488Z,11.30
2022-11-04T00:57:13.505Z,11.20
2022-11-04T00:58:12.903Z,11.00
2022-11-04T00:59:14.590Z,11.10
2022-11-04T01:00:14.014Z,10.90
2022-11-04T01:01:13.192Z,11.00
2022-11-04T01:02:13.577Z,10.80
2022-11-04T01:03:13.593Z,10.90
2022-11-04T01:04:14.073Z,11.00
2022-11-04T01:05:12.954Z,11.10
2022-11-04T01:06:13.133Z,11.10
2022-11-04T01:07:13.053Z,11.10
2022-11-04T01:08:12.916Z,11.10
2022-11-04T01:09:12.863Z,11.20
2022-11-04T01:10:14.082Z,11.10
2022-11-04T01:11:13.238Z,10.90
2022-11-04T01:12:13.457Z,10.90
2022-11-04T01:13:13.745Z,10.90
2022-11-04T01:14:13.948Z,11.10
2022-11-04T01:15:12.935Z,11.10
2022-11-04T01:16:13.363Z,11.20
2022-11-04T01:17:13.479Z,11.20
2022-11-04T01:18:13.702Z,11.30
2022-11-04T01:19:13.878Z,11.20
2022-11-04T01:20:13.818Z,11.10
2022-11-04T01:21:14.632Z,11.00
2022-11-04T01:22:13.866Z,11.00
2022-11-04T01:23:13.907Z,11.00
2022-11-04T01:24:13.445Z,11.00
2022-11-04T01:25:13.301Z,10.90
2022-11-04T01:26:13.333Z,11.10
2022-11-04T01:27:13.621Z,11.30
2022-11-04T01:28:13.549Z,11.30
2022-11-04T01:29:13.527Z,11.10
2022-11-04T01:30:13.561Z,11.10
2022-11-04T01:31:13.505Z,10.90
2022-11-04T01:32:13.760Z,10.90
2022-11-04T01:33:13.659Z,11.10
2022-11-04T01:34:13.592Z,10.90
2022-11-04T01:35:13.540Z,10.90
2022-11-04T01:36:13.530Z,11.10
2022-11-04T01:37:13.478Z,11.20
2022-11-04T01:38:13.756Z,11.10
2022-11-04T01:39:14.110Z,11.10
2022-11-04T01:40:13.400Z,10.90
2022-11-04T01:41:13.715Z,11.10
2022-11-04T01:42:13.606Z,11.00
2022-11-04T01:43:13.818Z,11.00
2022-11-04T01:44:13.754Z,11.00
2022-11-04T01:45:13.545Z,11.20
2022-11-04T01:46:13.749Z,11.20
2022-11-04T01:47:13.650Z,11.00
2022-11-04T01:48:13.549Z,11.00
2022-11-04T01:49:13.574Z,10.90
2022-11-04T01:50:13.764Z,11.10
2022-11-04T01:51:13.663Z,10.90
2022-11-04T01:52:13.624Z,11.00
2022-11-04T01:53:13.767Z,11.00
2022-11-04T01:54:13.822Z,11.10
2022-11-04T01:55:13.892Z,11.00
2022-11-04T01:56:13.075Z,11.10
2022-11-04T01:57:15.121Z,11.10
2022-11-04T01:58:13.572Z,11.20
2022-11-04T01:59:13.512Z,11.00
2022-11-04T02:00:13.847Z,10.90
2022-11-04T02:01:13.972Z,11.20
2022-11-04T02:02:13.605Z,10.90
2022-11-04T02:03:13.944Z,11.00
2022-11-04T02:04:12.737Z,11.00
2022-11-04T02:05:13.613Z,11.40
2022-11-04T02:06:18.750Z,11.30
2022-11-04T02:07:13.614Z,11.20
2022-11-04T02:08:14.096Z,11.00
2022-11-04T02:09:13.703Z,11.20
2022-11-04T02:10:13.715Z,11.00
2022-11-04T02:11:13.634Z,10.90
2022-11-04T02:12:13.511Z,10.90
2022-11-04T02:13:13.512Z,10.90
2022-11-04T02:14:14.006Z,11.00
2022-11-04T02:15:12.861Z,11.00
2022-11-04T02:16:13.727Z,10.90
2022-11-04T02:17:14.002Z,11.20
2022-11-04T02:18:13.128Z,10.90
2022-11-04T02:19:13.256Z,10.80
2022-11-04T02:20:13.205Z,10.90
2022-11-04T02:21:13.397Z,10.80
2022-11-04T02:22:13.362Z,10.80
2022-11-04T02:23:13.448Z,11.00
2022-11-04T02:24:13.408Z,11.00
2022-11-04T02:25:13.395Z,10.90
2022-11-04T02:26:13.280Z,10.80
2022-11-04T02:27:18.934Z,10.80
2022-11-04T02:28:13.032Z,10.90
2022-11-04T02:29:13.407Z,10.80
2022-11-04T02:30:13.276Z,10.70
2022-11-04T02:31:13.101Z,11.00
2022-11-04T02:32:12.935Z,11.00
2022-11-04T02:33:12.912Z,10.90
2022-11-04T02:34:12.810Z,10.80
2022-11-04T02:35:14.027Z,10.90
2022-11-04T02:36:13.411Z,10.70
2022-11-04T02:37:13.385Z,10.60
2022-11-04T02:38:13.454Z,10.80
2022-11-04T02:39:13.367Z,10.90
2022-11-04T02:40:13.308Z,10.80
2022-11-04T02:41:13.208Z,10.60
2022-11-04T02:42:13.372Z,10.70
2022-11-04T02:43:13.344Z,10.60
2022-11-04T02:44:13.277Z,10.60
2022-11-04T02:45:13.315Z,10.50
2022-11-04T02:46:13.640Z,10.50
2022-11-04T02:47:13.588Z,10.70
2022-11-04T02:48:13.620Z,10.50
2022-11-04T02:49:15.865Z,10.50
2022-11-04T02:50:13.416Z,10.60
2022-11-04T02:51:13.434Z,10.50
2022-11-04T02:52:13.457Z,10.50
2022-11-04T02:53:13.313Z,10.50
2022-11-04T02:54:13.241Z,10.50
2022-11-04T02:55:13.383Z,10.60
2022-11-04T02:56:13.878Z,10.40
2022-11-04T02:57:13.789Z,10.60
2022-11-04T02:58:13.806Z,10.70
2022-11-04T02:59:14.270Z,10.60
2022-11-04T03:00:13.217Z,10.60
2022-11-04T03:01:13.751Z,10.40
2022-11-04T03:02:13.957Z,10.50
2022-11-04T03:03:13.176Z,10.40
2022-11-04T03:04:13.001Z,10.40
2022-11-04T03:05:12.986Z,10.50
2022-11-04T03:06:13.147Z,10.40
2022-11-04T03:07:13.351Z,10.50
2022-11-04T03:08:12.997Z,10.60
2022-11-04T03:09:12.892Z,10.30
2022-11-04T03:10:12.914Z,10.40
2022-11-04T03:11:12.924Z,10.50
2022-11-04T03:12:13.174Z,10.50
2022-11-04T03:13:13.563Z,10.40
2022-11-04T03:14:13.933Z,10.60
2022-11-04T03:15:12.863Z,10.50
2022-11-04T03:16:13.756Z,10.50
2022-11-04T03:17:13.823Z,10.60
2022-11-04T03:18:12.847Z,10.60
2022-11-04T03:19:13.766Z,10.60
2022-11-04T03:20:13.726Z,10.70
2022-11-04T03:21:13.677Z,10.50
2022-11-04T03:22:13.793Z,10.40
2022-11-04T03:23:13.792Z,10.60
2022-11-04T03:24:13.774Z,10.60
2022-11-04T03:25:13.742Z,10.50
2022-11-04T03:26:13.648Z,10.50
2022-11-04T03:27:13.601Z,10.70
2022-11-04T03:28:13.483Z,10.50
2022-11-04T03:29:13.526Z,10.40
2022-11-04T03:30:13.852Z,10.60
2022-11-04T03:31:13.792Z,10.40
2022-11-04T03:32:13.668Z,10.50
2022-11-04T03:33:13.332Z,10.70
2022-11-04T03:34:13.461Z,10.60
2022-11-04T03:35:13.431Z,10.60
2022-11-04T03:36:13.367Z,10.40
2022-11-04T03:37:13.438Z,10.40
2022-11-04T03:38:13.771Z,10.60
2022-11-04T03:39:14.131Z,10.60
2022-11-04T03:40:13.169Z,10.60
2022-11-04T03:41:13.070Z,10.40
2022-11-04T03:42:13.149Z,10.50
2022-11-04T03:43:13.403Z,10.40
2022-11-04T03:44:13.492Z,10.40
2022-11-04T03:45:13.531Z,10.40
2022-11-04T03:46:13.802Z,10.30
2022-11-04T03:47:13.753Z,10.60
2022-11-04T03:48:14.020Z,10.50
2022-11-04T03:49:12.834Z,10.30
2022-11-04T03:50:13.709Z,10.50
2022-11-04T03:51:13.672Z,10.50
2022-11-04T03:52:13.707Z,10.50
2022-11-04T03:53:14.318Z,10.30
2022-11-04T03:54:13.506Z,10.40
2022-11-04T03:55:13.301Z,10.50
2022-11-04T03:56:13.209Z,10.30
2022-11-04T03:57:13.153Z,10.40
2022-11-04T03:58:13.070Z,10.20
2022-11-04T03:59:13.067Z,10.30
2022-11-04T04:00:13.014Z,10.30
2022-11-04T04:01:13.545Z,10.40
2022-11-04T04:02:13.792Z,10.40
2022-11-04T04:03:13.937Z,10.20
2022-11-04T04:04:12.867Z,10.20
2022-11-04T04:05:17.683Z,10.30
2022-11-04T04:06:13.007Z,10.30
2022-11-04T04:07:13.142Z,10.30
2022-11-04T04:08:13.236Z,10.30
2022-11-04T04:09:13.529Z,10.30
2022-11-04T04:10:13.788Z,10.10
2022-11-04T04:11:13.648Z,10.10
2022-11-04T04:12:13.519Z,10.00
2022-11-04T04:13:13.558Z,10.10
2022-11-04T04:14:13.025Z,10.10
2022-11-04T04:15:12.926Z,10.30
2022-11-04T04:16:12.769Z,10.20
2022-11-04T04:17:13.970Z,10.20
2022-11-04T04:18:13.006Z,10.00
2022-11-04T04:19:13.056Z,9.90
2022-11-04T04:20:12.914Z,10.20
2022-11-04T04:21:12.929Z,10.20
2022-11-04T04:22:12.829Z,10.10
2022-11-04T04:23:13.729Z,10.20
2022-11-04T04:24:13.957Z,10.10
2022-11-04T04:25:12.963Z,9.90
2022-11-04T04:26:13.155Z,10.10
2022-11-04T04:27:13.575Z,10.10
2022-11-04T04:28:13.883Z,10.20
2022-11-04T04:29:13.776Z,10.30
2022-11-04T04:30:13.738Z,10.10
2022-11-04T04:31:13.776Z,10.10
2022-11-04T04:32:13.598Z,10.40
2022-11-04T04:33:13.960Z,10.10
2022-11-04T04:34:13.006Z,10.10
2022-11-04T04:35:13.100Z,10.00
2022-11-04T04:36:13.004Z,9.90
2022-11-04T04:37:13.233Z,9.90
2022-11-04T04:38:13.171Z,9.90
2022-11-04T04:39:12.981Z,10.00
2022-11-04T04:40:12.866Z,10.10
2022-11-04T04:41:13.773Z,10.00
2022-11-04T04:42:14.109Z,9.80
2022-11-04T04:43:13.051Z,9.90
2022-11-04T04:44:12.995Z,9.80
2022-11-04T04:45:12.855Z,9.90
2022-11-04T04:46:13.937Z,10.10
2022-11-04T04:47:12.983Z,9.90
2022-11-04T04:48:13.231Z,10.10
2022-11-04T04:49:13.105Z,10.00
2022-11-04T04:50:13.288Z,9.90
2022-11-04T04:51:13.188Z,10.10
2022-11-04T04:52:13.131Z,10.00
2022-11-04T04:53:13.021Z,9.90
2022-11-04T04:54:13.105Z,10.20
2022-11-04T04:55:13.149Z,10.20
2022-11-04T04:56:13.031Z,9.80
2022-11-04T04:57:13.095Z,9.80
2022-11-04T04:58:13.259Z,10.10
2022-11-04T04:59:13.101Z,10.20
2022-11-04T05:00:13.002Z,10.10
2022-11-04T05:01:13.052Z,10.00
2022-11-04T05:02:13.401Z,10.10
2022-11-04T05:03:13.396Z,10.00
2022-11-04T05:04:13.440Z,9.80
2022-11-04T05:05:13.414Z,10.00
2022-11-04T05:06:13.366Z,9.90
2022-11-04T05:07:13.314Z,9.90
2022-11-04T05:08:13.308Z,9.90
2022-11-04T05:09:13.390Z,9.80
2022-11-04T05:10:13.461Z,9.90
2022-11-04T05:11:13.300Z,9.90
2022-11-04T05:12:13.200Z,9.90
2022-11-04T05:13:13.288Z,9.80
2022-11-04T05:14:13.627Z,9.70
2022-11-04T05:15:13.605Z,10.00
2022-11-04T05:16:13.574Z,9.70
2022-11-04T05:17:13.517Z,9.50
2022-11-04T05:18:13.576Z,9.60
2022-11-04T05:19:13.669Z,9.60
2022-11-04T05:20:13.601Z,9.70
2022-11-04T05:21:13.581Z,9.40
2022-11-04T05:22:14.008Z,9.70
2022-11-04T05:23:12.881Z,9.80
2022-11-04T05:24:13.777Z,9.80
2022-11-04T05:25:13.769Z,9.90
2022-11-04T05:26:13.774Z,9.90
2022-11-04T05:27:13.817Z,9.90
2022-11-04T05:28:13.668Z,9.90
2022-11-04T05:30:13.652Z,9.80
2022-11-04T05:31:13.747Z,9.90
2022-11-04T05:32:13.802Z,10.00
2022-11-04T05:33:14.133Z,9.60
2022-11-04T05:34:13.275Z,10.00
2022-11-04T05:35:13.199Z,10.10
2022-11-04T05:36:13.304Z,9.60
2022-11-04T05:37:13.455Z,9.80
2022-11-04T05:38:13.376Z,9.90
2022-11-04T05:39:13.294Z,9.70
2022-11-04T05:40:13.133Z,9.70
2022-11-04T05:41:13.228Z,9.80
2022-11-04T05:42:13.367Z,10.10
2022-11-04T05:43:13.498Z,10.00
2022-11-04T05:44:13.450Z,9.80
2022-11-04T05:45:13.368Z,9.80
2022-11-04T05:46:13.276Z,9.70
2022-11-04T05:47:13.105Z,9.90
2022-11-04T05:48:14.366Z,10.00
2022-11-04T05:49:13.581Z,10.10
2022-11-04T05:50:13.597Z,9.80
2022-11-04T05:51:13.559Z,9.90
2022-11-04T05:52:13.583Z,10.10
2022-11-04T05:53:13.519Z,10.00
2022-11-04T05:54:13.587Z,9.90
2022-11-04T05:55:13.480Z,10.00
2022-11-04T05:56:13.542Z,9.80
2022-11-04T05:57:13.561Z,10.00
2022-11-04T05:58:13.654Z,10.00
2022-11-04T05:59:13.561Z,9.90
2022-11-04T06:00:13.713Z,9.80
2022-11-04T06:01:14.303Z,10.00
2022-11-04T06:02:13.703Z,10.10
2022-11-04T06:03:16.288Z,9.90
2022-11-04T06:04:13.596Z,9.80
2022-11-04T06:05:13.628Z,9.90
2022-11-04T06:06:13.567Z,9.90
2022-11-04T06:07:13.437Z,10.10
2022-11-04T06:08:13.477Z,10.10
2022-11-04T06:09:13.361Z,10.20
2022-11-04T06:10:13.329Z,10.00
2022-11-04T06:11:13.263Z,10.10
2022-11-04T06:12:13.212Z,9.70
2022-11-04T06:13:13.182Z,9.90
2022-11-04T06:14:18.360Z,10.00
2022-11-04T06:15:12.761Z,10.20
2022-11-04T06:16:13.708Z,10.00
2022-11-04T06:17:13.800Z,9.90
2022-11-04T06:18:13.926Z,10.00
2022-11-04T06:19:15.900Z,10.00
2022-11-04T06:20:13.162Z,10.00
2022-11-04T06:21:13.035Z,10.20
2022-11-04T06:22:13.183Z,10.40
2022-11-04T06:23:13.310Z,10.30
2022-11-04T06:24:13.165Z,10.20
2022-11-04T06:25:13.292Z,10.10
2022-11-04T06:26:13.284Z,10.00
2022-11-04T06:27:14.240Z,10.30
2022-11-04T06:28:13.194Z,10.30
2022-11-04T06:29:13.170Z,11.20
2022-11-04T06:30:13.394Z,10.70
2022-11-04T06:31:13.459Z,10.40
2022-11-04T06:32:13.378Z,10.30
2022-11-04T06:33:13.407Z,10.10
2022-11-04T06:34:13.725Z,10.10
2022-11-04T06:35:13.841Z,10.20
2022-11-04T06:36:13.816Z,9.90
2022-11-04T06:37:14.005Z,10.00
2022-11-04T06:38:13.595Z,10.20
2022-11-04T06:39:19.016Z,10.20
2022-11-04T06:40:13.333Z,10.20
2022-11-04T06:41:13.659Z,10.20
2022-11-04T06:42:13.931Z,10.20
2022-11-04T06:43:12.889Z,10.40
2022-11-04T06:44:14.030Z,10.20
2022-11-04T06:45:13.008Z,10.40
2022-11-04T06:46:12.881Z,10.60
2022-11-04T06:47:13.904Z,10.40
2022-11-04T06:48:13.090Z,10.30
2022-11-04T06:49:13.098Z,10.10
2022-11-04T06:50:13.114Z,10.40
2022-11-04T06:51:13.078Z,10.60
2022-11-04T06:52:13.189Z,10.70
2022-11-04T06:53:13.347Z,10.50
2022-11-04T06:54:13.229Z,10.70
2022-11-04T06:55:13.269Z,10.60
2022-11-04T06:56:13.322Z,10.70
2022-11-04T06:57:13.633Z,10.50
2022-11-04T06:58:13.758Z,10.40
2022-11-04T06:59:13.897Z,10.50
2022-11-04T07:00:12.902Z,10.30
2022-11-04T07:01:17.330Z,10.50
2022-11-04T07:02:13.557Z,10.40
2022-11-04T07:03:13.677Z,10.40
2022-11-04T07:04:13.571Z,10.30
2022-11-04T07:05:13.585Z,10.30
2022-11-04T07:06:13.753Z,10.60
2022-11-04T07:07:13.766Z,10.50
2022-11-04T07:08:13.739Z,10.50
2022-11-04T07:09:13.549Z,10.70
2022-11-04T07:10:13.554Z,10.50
2022-11-04T07:11:13.526Z,10.60
2022-11-04T07:12:13.598Z,10.60
2022-11-04T07:13:13.703Z,10.60
2022-11-04T07:14:13.733Z,10.50
2022-11-04T07:15:15.013Z,10.70
2022-11-04T07:16:13.201Z,10.40
2022-11-04T07:17:13.118Z,10.70
2022-11-04T07:18:13.271Z,10.90
2022-11-04T07:19:13.631Z,10.80
2022-11-04T07:20:13.722Z,10.60
2022-11-04T07:21:13.803Z,10.70
2022-11-04T07:22:13.629Z,10.70
2022-11-04T07:23:13.533Z,10.70
2022-11-04T07:24:13.621Z,10.70
2022-11-04T07:25:13.627Z,10.80
2022-11-04T07:26:13.995Z,10.50
2022-11-04T07:27:12.942Z,10.60
2022-11-04T07:28:13.163Z,10.80
2022-11-04T07:29:13.620Z,10.60
2022-11-04T07:30:13.649Z,10.80
2022-11-04T07:31:13.480Z,10.70
2022-11-04T07:32:13.454Z,10.90
2022-11-04T07:33:13.593Z,10.90
2022-11-04T07:34:13.690Z,11.00
2022-11-04T07:35:13.607Z,11.20
2022-11-04T07:36:13.659Z,11.40
2022-11-04T07:37:13.665Z,11.50
2022-11-04T07:38:13.567Z,11.60
2022-11-04T07:39:13.533Z,11.70
2022-11-04T07:40:13.801Z,11.60
2022-11-04T07:41:13.887Z,11.60
2022-11-04T07:42:12.781Z,11.70
2022-11-04T07:43:13.688Z,11.60
2022-11-04T07:44:13.515Z,11.50
2022-11-04T07:45:13.368Z,11.60
2022-11-04T07:46:13.273Z,11.60
2022-11-04T07:47:13.226Z,11.20
2022-11-04T07:48:13.104Z,11.30
2022-11-04T07:49:13.028Z,11.40
2022-11-04T07:50:12.952Z,11.20
2022-11-04T07:51:13.327Z,11.10
2022-11-04T07:52:16.162Z,11.30
2022-11-04T07:53:14.745Z,11.20
2022-11-04T07:54:13.894Z,11.10
2022-11-04T07:55:33.040Z,11.60
2022-11-04T07:56:12.982Z,11.70
2022-11-04T07:57:13.429Z,11.30
2022-11-04T07:58:13.633Z,11.70
2022-11-04T07:59:13.618Z,11.80
2022-11-04T08:00:13.653Z,11.60
2022-11-04T08:01:14.140Z,11.80
2022-11-04T08:02:13.330Z,11.50
2022-11-04T08:03:13.814Z,11.50
2022-11-04T08:04:12.994Z,11.50
2022-11-04T08:05:12.905Z,11.70
2022-11-04T08:06:13.133Z,11.90
2022-11-04T08:07:13.084Z,11.60
2022-11-04T08:08:13.320Z,11.90
2022-11-04T08:09:13.407Z,11.90
2022-11-04T08:10:13.360Z,11.80
2022-11-04T08:11:17.335Z,11.70
2022-11-04T08:12:13.507Z,11.20
2022-11-04T08:13:13.588Z,11.00
2022-11-04T08:14:40.522Z,11.00
2022-11-04T08:15:13.452Z,11.10
2022-11-04T08:16:13.349Z,11.30
2022-11-04T08:17:13.206Z,11.30
2022-11-04T08:18:13.233Z,11.30
2022-11-04T08:19:13.240Z,11.50
2022-11-04T08:20:13.336Z,11.40
2022-11-04T08:21:13.324Z,11.40
2022-11-04T08:22:13.182Z,11.80
2022-11-04T08:23:13.219Z,11.70
2022-11-04T08:24:23.422Z,11.50
2022-11-04T08:25:13.362Z,11.10
2022-11-04T08:26:13.240Z,11.20
2022-11-04T08:27:13.302Z,11.20
2022-11-04T08:28:13.209Z,11.40
2022-11-04T08:29:13.242Z,11.70
2022-11-04T08:30:13.188Z,11.70
2022-11-04T08:31:13.059Z,12.10
2022-11-04T08:32:12.998Z,11.70
2022-11-04T08:33:13.087Z,11.90
2022-11-04T08:34:12.991Z,11.80
2022-11-04T08:35:13.065Z,11.60
2022-11-04T08:36:12.963Z,12.30
2022-11-04T08:37:12.955Z,11.70
2022-11-04T08:38:12.793Z,11.50
2022-11-04T08:39:13.649Z,11.70
2022-11-04T08:40:13.567Z,11.80
2022-11-04T08:41:59.437Z,11.80
2022-11-04T08:42:13.371Z,11.80
2022-11-04T08:43:13.197Z,11.90
2022-11-04T08:44:13.078Z,11.50
2022-11-04T08:45:13.247Z,11.70
2022-11-04T08:46:13.273Z,11.60
2022-11-04T08:47:13.262Z,12.00
2022-11-04T08:48:13.424Z,12.30
2022-11-04T08:49:17.814Z,12.60
2022-11-04T08:50:12.990Z,12.10
2022-11-04T08:51:13.295Z,11.90
2022-11-04T08:52:13.354Z,11.90
2022-11-04T08:53:13.275Z,12.20
2022-11-04T08:54:13.376Z,12.60
2022-11-04T08:55:14.551Z,12.90
2022-11-04T08:56:13.384Z,12.40
2022-11-04T08:57:13.262Z,12.40
2022-11-04T08:58:13.240Z,12.50
2022-11-04T08:59:13.137Z,12.40
2022-11-04T09:00:13.491Z,12.20
2022-11-04T09:01:13.541Z,12.60
2022-11-04T09:02:14.221Z,12.60
2022-11-04T09:03:13.243Z,12.20
2022-11-04T09:04:36.741Z,12.50
2022-11-04T09:05:32.783Z,12.70
2022-11-04T09:06:13.123Z,12.50
2022-11-04T09:07:12.936Z,12.10
2022-11-04T09:08:12.888Z,12.30
2022-11-04T09:09:12.856Z,12.70
2022-11-04T09:10:13.758Z,12.70
2022-11-04T09:11:13.981Z,12.50
2022-11-04T09:12:12.873Z,12.70
2022-11-04T09:13:13.766Z,12.90
2022-11-04T09:14:13.704Z,12.80
2022-11-04T09:15:13.902Z,13.00
2022-11-04T09:16:13.367Z,13.30
2022-11-04T09:17:13.624Z,12.90
2022-11-04T09:18:13.645Z,12.50
2022-11-04T09:19:13.979Z,12.90
2022-11-04T09:20:12.930Z,12.90
2022-11-04T09:21:12.958Z,13.30
2022-11-04T09:22:13.180Z,13.00
2022-11-04T09:23:13.531Z,12.50
2022-11-04T09:24:13.343Z,12.40
2022-11-04T09:25:13.395Z,12.70
2022-11-04T09:26:13.301Z,13.00
2022-11-04T09:27:13.440Z,12.50
2022-11-04T09:28:13.731Z,12.80
2022-11-04T09:29:13.653Z,12.80
2022-11-04T09:30:13.510Z,12.70
2022-11-04T09:31:13.375Z,12.90
2022-11-04T09:32:13.240Z,13.20
2022-11-04T09:33:13.190Z,13.40
2022-11-04T09:34:13.030Z,13.30
2022-11-04T09:35:12.984Z,13.30
2022-11-04T09:36:12.902Z,13.10
2022-11-04T09:37:13.027Z,13.40
2022-11-04T09:38:12.912Z,13.70
2022-11-04T09:39:12.742Z,14.30
2022-11-04T09:40:13.903Z,14.50
2022-11-04T09:41:12.798Z,14.10
2022-11-04T09:42:13.983Z,14.60
2022-11-04T09:43:13.296Z,15.40
2022-11-04T09:44:13.221Z,14.40
2022-11-04T09:45:21.599Z,13.70
2022-11-04T09:46:13.293Z,13.50
2022-11-04T09:47:16.766Z,13.60
2022-11-04T09:48:13.446Z,13.60
2022-11-04T09:49:13.838Z,13.20
2022-11-04T09:50:13.756Z,13.30
2022-11-04T09:51:32.680Z,12.90
2022-11-04T09:52:13.562Z,13.10
2022-11-04T09:53:13.598Z,14.00
2022-11-04T09:54:13.447Z,14.80
2022-11-04T09:55:13.620Z,14.70
2022-11-04T09:56:13.569Z,14.60
2022-11-04T09:57:13.745Z,14.10
2022-11-04T09:58:13.973Z,14.00
2022-11-04T09:59:12.997Z,14.20
2022-11-04T10:00:12.928Z,13.90
2022-11-04T10:01:12.851Z,15.20
2022-11-04T10:02:16.478Z,16.20
2022-11-04T10:03:14.218Z,16.70
2022-11-04T10:04:13.146Z,16.40
2022-11-04T10:05:13.054Z,15.90
2022-11-04T10:06:12.919Z,15.00
2022-11-04T10:07:13.096Z,14.80
2022-11-04T10:08:13.191Z,14.70
2022-11-04T10:09:13.178Z,15.20
2022-11-04T10:10:13.374Z,15.60
2022-11-04T10:11:13.411Z,16.40
2022-11-04T10:12:13.558Z,15.90
2022-11-04T10:13:13.564Z,16.20
2022-11-04T10:14:13.487Z,15.90
2022-11-04T10:15:13.369Z,16.00
2022-11-04T10:16:13.596Z,15.60
2022-11-04T10:17:13.518Z,17.10
2022-11-04T10:18:13.686Z,16.40
2022-11-04T10:19:13.736Z,17.20
2022-11-04T10:20:13.682Z,17.50
2022-11-04T10:21:13.595Z,18.60
2022-11-04T10:22:13.511Z,18.70
2022-11-04T10:23:13.712Z,18.40
2022-11-04T10:24:13.530Z,18.50
2022-11-04T10:25:13.531Z,17.90
2022-11-04T10:26:13.690Z,16.00
2022-11-04T10:27:13.511Z,15.40
2022-11-04T10:28:13.362Z,15.10
2022-11-04T10:29:13.449Z,14.50
2022-11-04T10:30:13.364Z,14.00
2022-11-04T10:31:13.535Z,13.70
2022-11-04T10:32:16.941Z,14.40
2022-11-04T10:33:13.608Z,14.90
2022-11-04T10:34:13.835Z,14.70
2022-11-04T10:35:13.996Z,15.10
2022-11-04T10:36:13.182Z,15.20
2022-11-04T10:37:13.266Z,15.10
2022-11-04T10:38:13.673Z,15.30
2022-11-04T10:39:13.702Z,14.40
2022-11-04T10:40:13.698Z,14.20
2022-11-04T10:41:13.674Z,14.10
2022-11-04T10:42:13.825Z,14.30
2022-11-04T10:43:13.794Z,14.30
2022-11-04T10:44:13.759Z,14.30
2022-11-04T10:45:14.075Z,13.80
2022-11-04T10:46:13.415Z,14.10
2022-11-04T10:47:13.872Z,13.50
2022-11-04T10:48:13.738Z,13.60
2022-11-04T10:49:13.608Z,13.80
2022-11-04T10:50:28.225Z,13.40
2022-11-04T10:51:13.728Z,13.30
2022-11-04T10:52:15.443Z,13.60
2022-11-04T10:53:13.591Z,13.90
2022-11-04T10:54:13.676Z,13.50
2022-11-04T10:55:23.966Z,13.70
2022-11-04T10:56:12.950Z,14.00
2022-11-04T10:57:13.036Z,13.80
2022-11-04T10:58:13.184Z,13.20
2022-11-04T10:59:20.447Z,13.50
2022-11-04T11:00:13.715Z,13.20
2022-11-04T11:01:15.169Z,13.30
2022-11-04T11:02:13.893Z,13.80
2022-11-04T11:03:12.916Z,13.20
2022-11-04T11:04:13.467Z,13.50
2022-11-04T11:05:13.713Z,13.80
2022-11-04T11:06:13.546Z,13.50
2022-11-04T11:07:13.619Z,14.20
2022-11-04T11:08:13.563Z,13.90
2022-11-04T11:09:13.444Z,13.90
2022-11-04T11:10:13.374Z,13.50
2022-11-04T11:11:13.364Z,13.70
2022-11-04T11:12:44.166Z,13.60
2022-11-04T11:13:13.977Z,13.40
2022-11-04T11:14:12.954Z,13.40
2022-11-04T11:15:14.717Z,13.70
2022-11-04T11:16:13.766Z,13.60
2022-11-04T11:17:13.711Z,13.50
2022-11-04T11:18:13.782Z,13.40
2022-11-04T11:19:13.849Z,13.60
2022-11-04T11:20:13.787Z,13.70
2022-11-04T11:21:13.785Z,13.30
2022-11-04T11:23:12.954Z,13.60
2022-11-04T11:23:24.273Z,13.50
2022-11-04T11:24:13.167Z,13.00
2022-11-04T11:25:13.226Z,13.40
2022-11-04T11:26:13.198Z,13.30
2022-11-04T11:27:13.391Z,13.70
2022-11-04T11:28:13.339Z,13.80
2022-11-04T11:29:13.416Z,13.70
2022-11-04T11:30:13.489Z,13.90
2022-11-04T11:31:13.750Z,14.00
2022-11-04T11:32:13.858Z,13.70
2022-11-04T11:33:13.676Z,13.70
2022-11-04T11:34:13.525Z,14.10
2022-11-04T11:35:13.503Z,14.00
2022-11-04T11:36:13.390Z,13.30
2022-11-04T11:37:14.467Z,12.90
2022-11-04T11:38:12.810Z,13.00
2022-11-04T11:39:13.657Z,13.30
2022-11-04T11:40:13.563Z,13.30
2022-11-04T11:41:24.489Z,13.30
2022-11-04T11:42:13.383Z,13.70
2022-11-04T11:43:13.291Z,13.50
2022-11-04T11:44:13.305Z,13.50
2022-11-04T11:45:13.392Z,13.50
2022-11-04T11:46:13.404Z,13.80
2022-11-04T11:47:14.060Z,13.90
2022-11-04T11:48:13.071Z,13.90
2022-11-04T11:49:13.386Z,13.70
2022-11-04T11:50:13.669Z,14.00
2022-11-04T11:51:13.654Z,14.30
2022-11-04T11:52:13.698Z,14.20
2022-11-04T11:53:13.798Z,13.90
2022-11-04T11:54:13.934Z,13.80
2022-11-04T11:55:12.976Z,13.80
2022-11-04T11:56:13.326Z,14.00
2022-11-04T11:57:28.222Z,13.50
2022-11-04T12:00:37.648Z,13.10
2022-11-04T12:01:22.098Z,13.00
2022-11-04T12:02:13.549Z,13.10
2022-11-04T12:03:15.720Z,13.30
2022-11-04T12:10:18.864Z,13.30
2022-11-04T12:11:13.759Z,13.40
2022-11-04T12:12:13.899Z,13.40
2022-11-04T12:13:23.335Z,13.10
2022-11-04T12:14:13.146Z,13.20
2022-11-04T12:15:13.403Z,13.30
2022-11-04T12:16:13.641Z,13.20
2022-11-04T12:17:14.145Z,13.10
2022-11-04T12:18:12.980Z,13.30
2022-11-04T12:19:13.022Z,13.30
2022-11-04T12:20:15.117Z,13.30
2022-11-04T12:21:13.711Z,12.70
2022-11-04T12:22:13.660Z,12.90
2022-11-04T12:23:13.583Z,13.00
2022-11-04T12:24:13.554Z,12.80
2022-11-04T12:25:13.753Z,12.60
2022-11-04T12:26:13.705Z,12.90
2022-11-04T12:27:13.656Z,12.70
2022-11-04T12:28:13.579Z,13.00
2022-11-04T12:29:13.780Z,12.90
2022-11-04T12:30:13.660Z,12.90
2022-11-04T12:31:13.567Z,13.10
2022-11-04T12:32:13.505Z,13.20
2022-11-04T12:33:13.438Z,13.00
2022-11-04T12:34:13.493Z,12.90
2022-11-04T12:35:13.405Z,13.00
2022-11-04T12:36:13.370Z,13.20
2022-11-04T12:37:13.506Z,13.00
2022-11-04T12:38:13.650Z,12.70
2022-11-04T12:40:13.417Z,12.60
2022-11-04T12:41:47.151Z,13.10
2022-11-04T12:42:22.238Z,12.90
2022-11-04T12:43:13.852Z,13.10
2022-11-04T12:44:13.746Z,13.10
2022-11-04T12:45:13.638Z,13.40
2022-11-04T12:46:13.503Z,13.30
2022-11-04T12:47:13.385Z,13.40
2022-11-04T12:48:13.302Z,13.30
2022-11-04T12:49:13.229Z,13.20
2022-11-04T12:50:13.187Z,13.30
2022-11-04T12:51:13.238Z,13.20
2022-11-04T12:52:13.127Z,13.20
2022-11-04T12:53:13.002Z,13.40
2022-11-04T12:54:12.875Z,13.20
2022-11-04T12:55:13.795Z,13.30
2022-11-04T12:56:13.840Z,13.20
2022-11-04T12:57:14.343Z,13.00
2022-11-04T12:58:13.276Z,13.30
2022-11-04T12:59:13.173Z,13.50
2022-11-04T13:00:13.089Z,13.30
2022-11-04T13:01:15.519Z,13.30
2022-11-04T13:02:14.530Z,14.00
2022-11-04T13:03:14.969Z,13.40
2022-11-04T13:04:13.683Z,13.10